createdAt,value
2023-12-23T00:01:30.322Z,6.60
2023-12-23T00:04:17.093Z,6.60
2023-12-23T00:07:05.148Z,6.60
2023-12-23T00:09:52.071Z,6.60
2023-12-23T00:12:38.996Z,6.60
2023-12-23T00:15:25.924Z,6.60
2023-12-23T00:18:14.895Z,6.60
2023-12-23T00:21:01.768Z,6.60
2023-12-23T00:23:48.622Z,6.70
2023-12-23T00:26:35.348Z,6.60
2023-12-23T00:29:22.252Z,6.60
2023-12-23T00:32:09.236Z,6.60
2023-12-23T00:34:56.136Z,6.50
2023-12-23T00:37:43.011Z,6.50
2023-12-23T00:40:29.847Z,6.50
2023-12-23T00:43:18.668Z,6.50
2023-12-23T00:46:05.476Z,6.40
2023-12-23T00:48:52.625Z,6.30
2023-12-23T00:51:39.384Z,6.30
2023-12-23T00:54:27.339Z,6.30
2023-12-23T00:57:14.048Z,6.20
2023-12-23T01:00:01.040Z,6.20
2023-12-23T01:02:47.802Z,6.10
2023-12-23T01:05:34.583Z,6.10
2023-12-23T01:08:21.449Z,6.10
2023-12-23T01:11:08.359Z,6.00
2023-12-23T01:13:55.121Z,5.90
2023-12-23T01:16:42.125Z,5.90
2023-12-23T01:19:29.137Z,5.90
2023-12-23T01:22:15.944Z,5.80
2023-12-23T01:25:03.424Z,5.80
2023-12-23T01:27:52.457Z,5.80
2023-12-23T01:30:40.334Z,5.70
2023-12-23T01:33:27.319Z,5.70
2023-12-23T01:36:15.752Z,5.60
2023-12-23T01:39:03.659Z,5.60
2023-12-23T01:41:50.377Z,5.60
2023-12-23T01:44:37.139Z,5.60
2023-12-23T01:47:23.897Z,5.60
2023-12-23T01:50:12.866Z,5.50
2023-12-23T01:52:59.659Z,5.50
2023-12-23T01:55:46.907Z,5.50
2023-12-23T01:58:33.816Z,5.50
2023-12-23T02:01:22.751Z,5.40
2023-12-23T02:04:09.879Z,5.40
2023-12-23T02:06:57.146Z,5.40
2023-12-23T02:09:43.934Z,5.40
2023-12-23T02:13:10.178Z,5.30
2023-12-23T02:16:00.042Z,5.20
2023-12-23T02:18:48.599Z,5.20
2023-12-23T02:21:35.405Z,5.10
2023-12-23T02:24:22.472Z,5.10
2023-12-23T02:27:12.259Z,5.10
2023-12-23T02:29:59.875Z,5.00
2023-12-23T02:32:46.770Z,5.00
2023-12-23T02:35:33.762Z,5.00
2023-12-23T02:38:22.033Z,5.00
2023-12-23T02:41:09.647Z,5.00
2023-12-23T02:43:56.511Z,5.00
2023-12-23T02:46:43.359Z,4.90
2023-12-23T02:49:30.124Z,4.90
2023-12-23T02:52:17.007Z,4.90
2023-12-23T02:55:04.582Z,4.90
2023-12-23T02:57:51.544Z,4.90
2023-12-23T03:00:38.377Z,4.80
2023-12-23T03:03:25.219Z,4.90
2023-12-23T03:06:15.548Z,4.80
2023-12-23T03:09:02.478Z,4.80
2023-12-23T03:11:51.054Z,4.80
2023-12-23T03:14:37.958Z,5.90
2023-12-23T03:17:26.758Z,4.80
2023-12-23T03:20:13.876Z,4.70
2023-12-23T03:23:00.728Z,4.70
2023-12-23T03:25:47.569Z,4.80
2023-12-23T03:28:34.357Z,4.80
2023-12-23T03:31:21.413Z,4.80
2023-12-23T03:34:08.297Z,4.70
2023-12-23T03:36:55.112Z,4.80
2023-12-23T03:39:41.849Z,4.70
2023-12-23T03:42:29.709Z,4.70
2023-12-23T03:45:18.189Z,4.70
2023-12-23T03:48:05.756Z,4.80
2023-12-23T03:50:52.792Z,4.80
2023-12-23T03:53:39.550Z,4.70
2023-12-23T03:56:26.485Z,4.70
2023-12-23T03:59:13.278Z,4.80
2023-12-23T04:02:00.242Z,4.70
2023-12-23T04:04:47.046Z,4.80
2023-12-23T04:07:33.899Z,4.80
2023-12-23T04:10:20.680Z,4.80
2023-12-23T04:13:07.758Z,4.80
2023-12-23T04:15:54.557Z,4.70
2023-12-23T04:18:41.430Z,4.80
2023-12-23T04:21:28.368Z,4.70
2023-12-23T04:24:15.217Z,4.80
2023-12-23T04:27:02.219Z,4.70
2023-12-23T04:29:50.524Z,4.80
2023-12-23T04:32:37.438Z,4.80
2023-12-23T04:35:24.896Z,4.80
2023-12-23T04:38:12.337Z,4.80
2023-12-23T04:41:00.335Z,4.70
2023-12-23T04:43:47.399Z,4.80
2023-12-23T04:46:34.132Z,4.80
2023-12-23T04:49:21.942Z,4.80
2023-12-23T04:52:08.651Z,4.80
2023-12-23T04:54:56.712Z,4.80
2023-12-23T04:57:43.584Z,4.80
2023-12-23T05:00:31.445Z,4.70
2023-12-23T05:03:18.238Z,4.80
2023-12-23T05:06:06.412Z,4.80
2023-12-23T05:08:53.268Z,4.70
2023-12-23T05:11:40.468Z,4.80
2023-12-23T05:14:27.201Z,4.80
2023-12-23T05:17:14.068Z,4.70
2023-12-23T05:20:01.318Z,4.70
2023-12-23T05:22:48.491Z,4.80
2023-12-23T05:25:35.512Z,4.80
2023-12-23T05:28:22.751Z,4.80
2023-12-23T05:31:09.647Z,4.80
2023-12-23T05:33:58.297Z,4.70
2023-12-23T05:36:46.175Z,4.70
2023-12-23T05:39:33.140Z,4.80
2023-12-23T05:42:20.026Z,4.80
2023-12-23T05:45:07.153Z,4.70
2023-12-23T05:47:56.206Z,4.80
2023-12-23T05:50:43.033Z,4.80
2023-12-23T05:53:30.884Z,4.80
2023-12-23T05:56:17.720Z,4.80
2023-12-23T05:59:04.747Z,4.80
2023-12-23T06:01:53.218Z,4.80
2023-12-23T06:04:40.513Z,4.80
2023-12-23T06:07:27.322Z,4.80
2023-12-23T06:10:14.166Z,4.80
2023-12-23T06:13:00.995Z,4.80
2023-12-23T06:15:55.085Z,4.80
2023-12-23T06:18:41.921Z,4.80
2023-12-23T06:21:28.788Z,4.80
2023-12-23T06:24:15.658Z,4.80
2023-12-23T06:27:03.723Z,4.80
2023-12-23T06:29:50.737Z,4.80
2023-12-23T06:32:38.935Z,4.80
2023-12-23T06:35:26.039Z,4.90
2023-12-23T06:38:15.018Z,4.80
2023-12-23T06:41:03.249Z,4.80
2023-12-23T06:43:52.851Z,4.80
2023-12-23T06:46:40.307Z,4.80
2023-12-23T06:49:28.934Z,4.80
2023-12-23T06:52:22.063Z,4.80
2023-12-23T06:55:09.157Z,4.70
2023-12-23T06:57:56.680Z,4.80
2023-12-23T07:00:44.172Z,4.80
2023-12-23T07:03:33.079Z,4.80
2023-12-23T07:06:19.890Z,4.80
2023-12-23T07:09:09.180Z,4.70
2023-12-23T07:11:56.259Z,4.70
2023-12-23T07:14:44.216Z,4.70
2023-12-23T07:17:38.522Z,4.80
2023-12-23T07:20:29.366Z,4.70
2023-12-23T07:23:16.210Z,4.70
2023-12-23T07:26:03.761Z,4.70
2023-12-23T07:28:50.679Z,4.70
2023-12-23T07:31:37.492Z,4.70
2023-12-23T07:34:25.504Z,4.70
2023-12-23T07:37:12.300Z,4.60
2023-12-23T07:40:00.320Z,4.60
2023-12-23T07:42:47.047Z,4.60
2023-12-23T07:45:34.024Z,4.60
2023-12-23T07:48:20.779Z,4.60
2023-12-23T07:51:08.667Z,4.60
2023-12-23T07:53:55.608Z,4.60
2023-12-23T07:56:42.738Z,4.60
2023-12-23T07:59:29.510Z,4.50
2023-12-23T08:02:16.325Z,4.50
2023-12-23T08:05:04.787Z,4.50
2023-12-23T08:07:55.233Z,4.50
2023-12-23T08:10:42.098Z,4.50
2023-12-23T08:13:29.975Z,4.50
2023-12-23T08:16:16.685Z,4.40
2023-12-23T08:19:03.575Z,4.40
2023-12-23T08:21:50.404Z,4.40
2023-12-23T08:24:37.189Z,4.40
2023-12-23T08:27:23.938Z,4.30
2023-12-23T08:30:11.368Z,4.40
2023-12-23T08:32:58.171Z,4.40
2023-12-23T08:35:45.248Z,4.30
2023-12-23T08:38:32.087Z,4.30
2023-12-23T08:41:18.934Z,4.30
2023-12-23T08:44:05.971Z,4.30
2023-12-23T08:46:54.072Z,4.30
2023-12-23T08:49:41.032Z,4.30
2023-12-23T08:52:28.921Z,4.30
2023-12-23T08:55:16.091Z,4.30
2023-12-23T08:58:03.665Z,4.20
2023-12-23T09:00:50.453Z,4.20
2023-12-23T09:03:37.398Z,4.20
2023-12-23T09:06:24.454Z,4.20
2023-12-23T09:09:11.665Z,4.20
2023-12-23T09:11:58.513Z,4.20
2023-12-23T09:14:45.549Z,4.20
2023-12-23T09:17:34.442Z,4.20
2023-12-23T09:20:21.767Z,4.20
2023-12-23T09:23:08.711Z,4.20
2023-12-23T09:25:58.728Z,4.20
2023-12-23T09:28:45.799Z,4.20
2023-12-23T09:31:38.790Z,4.20
2023-12-23T09:34:25.605Z,4.20
2023-12-23T09:37:13.444Z,4.30
2023-12-23T09:40:02.640Z,4.30
2023-12-23T09:42:51.533Z,4.30
2023-12-23T09:45:38.851Z,4.30
2023-12-23T09:48:25.754Z,4.40
2023-12-23T09:51:12.595Z,4.40
2023-12-23T09:54:02.712Z,4.40
2023-12-23T09:56:49.996Z,4.50
2023-12-23T09:59:36.895Z,4.60
2023-12-23T10:02:23.961Z,4.60
2023-12-23T10:05:11.230Z,4.60
2023-12-23T10:07:58.768Z,4.60
2023-12-23T10:10:49.579Z,4.70
2023-12-23T10:13:37.039Z,4.70
2023-12-23T10:16:25.817Z,4.80
2023-12-23T10:19:12.659Z,4.80
2023-12-23T10:22:04.122Z,4.90
2023-12-23T10:24:51.744Z,4.80
2023-12-23T10:27:42.696Z,5.00
2023-12-23T10:30:30.516Z,5.00
2023-12-23T10:33:20.971Z,5.10
2023-12-23T10:36:08.272Z,5.10
2023-12-23T10:38:57.978Z,5.10
2023-12-23T10:41:58.266Z,5.20
2023-12-23T10:44:46.181Z,5.20
2023-12-23T10:47:33.957Z,5.20
2023-12-23T10:50:22.225Z,5.20
2023-12-23T10:53:10.001Z,5.20
2023-12-23T10:55:57.082Z,5.30
2023-12-23T10:58:43.875Z,5.30
2023-12-23T11:01:33.462Z,5.30
2023-12-23T11:04:20.435Z,5.30
2023-12-23T11:07:07.516Z,5.30
2023-12-23T11:09:54.481Z,5.40
2023-12-23T11:12:42.759Z,5.30
2023-12-23T11:15:30.595Z,5.40
2023-12-23T11:18:17.492Z,5.40
2023-12-23T11:21:04.420Z,5.40
2023-12-23T11:23:53.144Z,5.40
2023-12-23T11:26:43.637Z,5.50
2023-12-23T11:29:30.501Z,5.50
2023-12-23T11:32:17.320Z,5.60
2023-12-23T11:35:05.714Z,5.60
2023-12-23T11:37:53.741Z,5.50
2023-12-23T11:40:40.793Z,5.60
2023-12-23T11:43:27.604Z,5.60
2023-12-23T11:46:14.881Z,5.60
2023-12-23T11:49:01.806Z,5.60
2023-12-23T11:51:49.695Z,5.60
2023-12-23T11:54:36.535Z,5.60
2023-12-23T11:57:23.301Z,5.70
2023-12-23T12:00:10.710Z,5.70
2023-12-23T12:02:58.049Z,5.70
2023-12-23T12:05:45.031Z,5.70
2023-12-23T12:08:32.023Z,5.80
2023-12-23T12:11:19.097Z,5.80
2023-12-23T12:14:07.342Z,5.90
2023-12-23T12:16:55.897Z,5.80
2023-12-23T12:19:42.701Z,5.80
2023-12-23T12:22:29.913Z,5.80
2023-12-23T12:25:17.395Z,5.90
2023-12-23T12:28:06.541Z,5.90
2023-12-23T12:30:53.512Z,5.90
2023-12-23T12:33:43.991Z,5.90
2023-12-23T12:36:30.920Z,5.90
2023-12-23T12:39:21.167Z,6.00
2023-12-23T12:42:08.080Z,5.90
2023-12-23T12:45:01.574Z,5.90
2023-12-23T12:47:49.896Z,6.00
2023-12-23T12:50:44.916Z,6.00
2023-12-23T12:53:32.119Z,6.00
2023-12-23T12:56:23.098Z,6.00
2023-12-23T12:59:11.351Z,6.00
2023-12-23T13:01:58.263Z,6.00
2023-12-23T13:04:46.665Z,6.10
2023-12-23T13:07:33.443Z,6.00
2023-12-23T13:10:24.562Z,6.00
2023-12-23T13:13:11.578Z,6.10
2023-12-23T13:15:58.823Z,6.10
2023-12-23T13:18:53.125Z,6.10
2023-12-23T13:21:46.448Z,6.10
2023-12-23T13:24:33.362Z,6.10
2023-12-23T13:27:21.174Z,6.10
2023-12-23T13:30:08.665Z,6.10
2023-12-23T13:32:56.188Z,6.10
2023-12-23T13:35:43.575Z,6.10
2023-12-23T13:38:31.487Z,6.20
2023-12-23T13:41:26.487Z,6.20
2023-12-23T13:44:13.581Z,6.10
2023-12-23T13:47:01.634Z,6.20
2023-12-23T13:49:49.949Z,6.10
2023-12-23T13:52:36.822Z,6.20
2023-12-23T13:55:23.846Z,6.20
2023-12-23T13:58:12.347Z,6.20
2023-12-23T14:01:00.349Z,6.20
2023-12-23T14:03:47.147Z,6.20
2023-12-23T14:06:34.135Z,6.20
2023-12-23T14:09:20.912Z,6.20
2023-12-23T14:12:09.223Z,6.20
2023-12-23T14:14:56.072Z,6.20
2023-12-23T14:17:45.066Z,6.20
2023-12-23T14:20:32.125Z,6.20
2023-12-23T14:23:19.056Z,6.20
2023-12-23T14:26:06.017Z,6.20
2023-12-23T14:28:52.957Z,6.20
2023-12-23T14:31:40.033Z,6.30
2023-12-23T14:34:26.874Z,6.30
2023-12-23T14:37:13.934Z,6.20
2023-12-23T14:40:00.787Z,6.20
2023-12-23T14:42:49.956Z,6.30
2023-12-23T14:45:37.024Z,6.30
2023-12-23T14:48:24.040Z,6.30
2023-12-23T14:51:11.107Z,6.30
2023-12-23T14:53:58.425Z,6.30
2023-12-23T14:56:46.460Z,6.30
2023-12-23T14:59:33.623Z,6.30
2023-12-23T15:02:20.822Z,6.30
2023-12-23T15:05:08.070Z,6.30
2023-12-23T15:07:57.043Z,6.30
2023-12-23T15:10:43.886Z,6.30
2023-12-23T15:13:37.370Z,6.30
2023-12-23T15:16:24.997Z,6.30
2023-12-23T15:19:11.864Z,6.30
2023-12-23T15:21:58.809Z,6.30
2023-12-23T15:24:45.769Z,6.30
2023-12-23T15:27:32.691Z,6.30
2023-12-23T15:30:20.135Z,6.30
2023-12-23T15:33:07.012Z,6.30
2023-12-23T15:35:56.159Z,6.30
2023-12-23T15:38:43.452Z,6.20
2023-12-23T15:41:31.373Z,6.30
2023-12-23T15:44:18.220Z,6.30
2023-12-23T15:47:08.010Z,6.20
2023-12-23T15:49:54.917Z,6.30
2023-12-23T15:52:41.749Z,6.30
2023-12-23T15:55:30.025Z,6.30
2023-12-23T15:58:16.818Z,6.30
2023-12-23T16:01:03.900Z,6.30
2023-12-23T16:03:51.057Z,6.30
2023-12-23T16:06:37.893Z,6.30
2023-12-23T16:09:25.678Z,6.30
2023-12-23T16:12:12.448Z,6.30
2023-12-23T16:14:59.271Z,6.30
2023-12-23T16:17:46.155Z,6.30
2023-12-23T16:20:33.131Z,6.30
2023-12-23T16:23:20.452Z,6.30
2023-12-23T16:26:14.626Z,6.30
2023-12-23T16:29:01.466Z,6.30
2023-12-23T16:45:05.484Z,6.30
2023-12-23T16:47:53.805Z,6.50
2023-12-23T16:50:41.904Z,6.50
2023-12-23T16:53:28.827Z,6.60
2023-12-23T16:56:15.805Z,6.40
2023-12-23T16:59:02.580Z,6.40
2023-12-23T17:01:49.456Z,6.40
2023-12-23T17:04:36.276Z,6.40
2023-12-23T17:07:24.124Z,6.40
2023-12-23T17:10:11.345Z,6.40
2023-12-23T17:12:58.137Z,6.40
2023-12-23T17:15:44.881Z,6.40
2023-12-23T17:18:33.826Z,6.40
2023-12-23T17:21:20.639Z,6.40
2023-12-23T17:24:07.705Z,6.40
2023-12-23T17:26:54.892Z,6.40
2023-12-23T17:29:41.877Z,6.40
2023-12-23T17:32:28.881Z,6.30
2023-12-23T17:35:16.127Z,6.40
2023-12-23T17:38:03.401Z,6.30
2023-12-23T17:40:53.008Z,6.40
2023-12-23T17:43:41.457Z,6.40
2023-12-23T17:46:28.644Z,6.30
2023-12-23T17:49:17.761Z,6.40
2023-12-23T17:52:06.261Z,6.30
2023-12-23T17:54:53.022Z,6.30
2023-12-23T17:57:39.933Z,6.30
2023-12-23T18:00:26.740Z,6.30
2023-12-23T18:03:18.678Z,6.30
2023-12-23T18:06:06.025Z,6.40
2023-12-23T18:08:54.258Z,6.40
2023-12-23T18:11:41.052Z,6.40
2023-12-23T18:14:29.980Z,6.40
2023-12-23T18:17:16.816Z,6.40
2023-12-23T18:20:05.447Z,6.40
2023-12-23T18:22:53.218Z,6.40
2023-12-23T18:25:41.516Z,6.40
2023-12-23T18:28:28.395Z,6.40
2023-12-23T18:31:16.271Z,6.40
2023-12-23T18:34:03.249Z,6.40
2023-12-23T18:36:50.101Z,6.40
2023-12-23T18:39:37.220Z,6.40
2023-12-23T18:42:24.009Z,6.40
2023-12-23T18:45:12.353Z,6.40
2023-12-23T18:47:59.637Z,6.40
2023-12-23T18:50:47.056Z,6.40
2023-12-23T18:53:33.970Z,6.40
2023-12-23T18:56:23.020Z,6.40
2023-12-23T18:59:09.961Z,6.40
2023-12-23T19:01:56.980Z,6.40
2023-12-23T19:04:45.902Z,6.40
2023-12-23T19:07:33.009Z,6.40
2023-12-23T19:10:19.991Z,6.40
2023-12-23T19:13:06.933Z,6.40
2023-12-23T19:15:53.908Z,6.40
2023-12-23T19:18:40.751Z,6.40
2023-12-23T19:21:27.782Z,6.40
2023-12-23T19:24:14.766Z,6.50
2023-12-23T19:27:01.871Z,6.40
2023-12-23T19:29:48.625Z,6.50
2023-12-23T19:32:41.294Z,6.40
2023-12-23T19:35:28.364Z,6.40
2023-12-23T19:38:19.381Z,6.50
2023-12-23T19:41:06.185Z,6.40
2023-12-23T19:43:53.070Z,6.40
2023-12-23T19:46:39.940Z,6.40
2023-12-23T19:49:27.097Z,6.40
2023-12-23T19:52:13.840Z,6.40
2023-12-23T19:55:00.740Z,6.40
2023-12-23T19:57:47.579Z,6.40
2023-12-23T20:00:35.613Z,6.40
2023-12-23T20:03:22.542Z,6.40
2023-12-23T20:06:11.153Z,6.40
2023-12-23T20:08:58.395Z,6.40
2023-12-23T20:11:45.767Z,6.40
2023-12-23T20:14:32.699Z,6.40
2023-12-23T20:17:19.749Z,6.40
2023-12-23T20:20:07.391Z,6.40
2023-12-23T20:22:55.562Z,6.40
2023-12-23T20:25:42.644Z,6.40
2023-12-23T20:28:29.662Z,6.40
2023-12-23T20:31:16.837Z,6.40
2023-12-23T20:34:08.182Z,6.40
2023-12-23T20:36:55.622Z,6.40
2023-12-23T20:39:42.538Z,6.40
2023-12-23T20:42:29.334Z,6.40
2023-12-23T20:45:16.233Z,6.40
2023-12-23T20:48:04.345Z,6.40
2023-12-23T20:50:52.905Z,6.40
2023-12-23T20:53:42.846Z,6.40
2023-12-23T20:56:30.775Z,6.40
2023-12-23T20:59:17.778Z,6.40
2023-12-23T21:02:04.842Z,6.40
2023-12-23T21:04:51.740Z,6.40
2023-12-23T21:07:39.902Z,6.40
2023-12-23T21:10:28.054Z,6.40
2023-12-23T21:13:14.854Z,6.40
2023-12-23T21:16:02.844Z,6.40
2023-12-23T21:18:49.912Z,6.40
2023-12-23T21:21:40.161Z,6.40
2023-12-23T21:24:26.994Z,6.30
2023-12-23T21:27:15.102Z,6.40
2023-12-23T21:30:01.997Z,6.30
2023-12-23T21:32:51.035Z,6.40
2023-12-23T21:35:38.341Z,6.40
2023-12-23T21:38:26.299Z,6.30
2023-12-23T21:41:13.146Z,6.40
2023-12-23T21:44:01.279Z,6.40
2023-12-23T21:46:48.772Z,6.40
2023-12-23T21:49:35.813Z,6.40
2023-12-23T21:52:22.648Z,6.40
2023-12-23T21:55:09.712Z,6.40
2023-12-23T21:57:57.280Z,6.30
2023-12-23T22:00:44.216Z,6.40
2023-12-23T22:03:31.145Z,6.30
2023-12-23T22:06:21.341Z,6.40
2023-12-23T22:09:08.261Z,6.40
2023-12-23T22:11:55.329Z,6.40
2023-12-23T22:14:42.090Z,6.40
2023-12-23T22:17:29.366Z,6.40
2023-12-23T22:20:16.245Z,6.40
2023-12-23T22:23:03.215Z,6.40
2023-12-23T22:25:50.153Z,6.40
2023-12-23T22:28:36.904Z,6.40
2023-12-23T22:31:23.859Z,6.40
2023-12-23T22:34:11.448Z,6.40
2023-12-23T22:36:58.558Z,6.40
2023-12-23T22:39:49.007Z,6.40
2023-12-23T22:42:37.080Z,6.40
2023-12-23T22:45:23.967Z,6.40
2023-12-23T22:48:10.886Z,6.40
2023-12-23T22:50:57.840Z,6.40
2023-12-23T22:53:44.776Z,6.40
2023-12-23T22:56:31.641Z,6.40
2023-12-23T22:59:18.645Z,6.40
2023-12-23T23:02:05.837Z,6.40
2023-12-23T23:04:52.856Z,6.40
2023-12-23T23:07:39.787Z,6.40
2023-12-23T23:10:26.627Z,6.40
2023-12-23T23:13:13.512Z,6.40
2023-12-23T23:16:00.331Z,6.40
2023-12-23T23:18:47.439Z,6.40
2023-12-23T23:21:34.666Z,6.40
2023-12-23T23:24:21.668Z,6.50
2023-12-23T23:27:08.474Z,6.40
2023-12-23T23:29:55.475Z,6.50
2023-12-23T23:32:42.455Z,6.40
2023-12-23T23:35:29.567Z,6.40
2023-12-23T23:38:16.520Z,6.40
2023-12-23T23:41:05.483Z,6.50
2023-12-23T23:43:52.460Z,6.40
2023-12-23T23:46:39.236Z,6.40
2023-12-23T23:49:26.071Z,6.40
2023-12-23T23:52:13.923Z,6.50
2023-12-23T23:55:00.907Z,6.40
2023-12-23T23:57:47.746Z,6.40
